Pagina principale
METAR-TAF:

METAR-TAF

Aeroporti :

Aerodromo Hinterstoisser-Zeltweg

Zeltweg, Austria

latitudine: 47-12N, longitudine: 014-45E, altezza: 677 m

Osservazione

Il bollettino è stato emesso 29 minuti fa, alle 13:20 UTC
Vento 1 kt da direzioni variabili
Temperature 1°C
Umidità 75%
Pressione 1019 hPa

METAR: LOXZ 061320Z VRB01KT 30KM BKN240CI 01/M03 Q1019 NOSIG

Ora: 14:49 (13:49 UTC)

Previsione

Il bollettino è stato emesso 2 ore e 34 minuti fa, alle 11:15 UTC
Previsione valida dal 06 alle 12 UTC al 06 alle 21 UTC
Vento 3 kt da direzioni variabili
Visibilità 10 km o più
Nuvoloso ad un'altezza di 25000 ft

TAF: LOXZ 061115Z 0612/0621 VRB03KT 9999 BKN250

Osservazioni e previsioni meteorologiche di più di 4000 aeroporti (messaggi METAR e TAF).

Le stazioni disponibili sono rappresentate dai dischi gialli e rossi sulla carta.

Puntare il mouse per vedere il nome della stazione.

Clicca sopra per visualizzare le osservazioni e previsioni meteorologiche.

Per cambiare la mappa : fare clic sui pulsanti verdi con una croce nera per ingrandire, il pulsante verde con un trattino per diminuire, o sulla freccia verde per le mappe adiacenti.


METAR-TAF: